createdAt,value
2022-10-05T00:03:12.881Z,3.77
2022-10-05T00:13:18.348Z,3.93
2022-10-05T00:23:26.190Z,3.77
2022-10-05T00:33:32.226Z,3.73
2022-10-05T00:43:51.161Z,3.77
2022-10-05T00:54:07.852Z,4.20
2022-10-05T01:04:25.150Z,3.70
2022-10-05T01:14:33.382Z,4.20
2022-10-05T01:24:51.078Z,3.20
2022-10-05T01:35:09.960Z,3.50
2022-10-05T01:45:27.604Z,3.13
2022-10-05T01:55:40.454Z,3.43
2022-10-05T02:05:51.657Z,3.27
2022-10-05T02:16:02.370Z,3.40
2022-10-05T02:26:08.028Z,3.17
2022-10-05T02:36:18.466Z,4.57
2022-10-05T02:46:34.723Z,4.50
2022-10-05T02:56:47.987Z,4.83
2022-10-05T03:07:03.830Z,4.90
2022-10-05T03:17:17.213Z,5.23
2022-10-05T03:27:33.055Z,5.53
2022-10-05T03:37:47.523Z,5.67
2022-10-05T03:48:01.478Z,5.37
2022-10-05T03:58:15.587Z,5.83
2022-10-05T04:08:24.206Z,4.87
2022-10-05T04:18:33.628Z,4.82
2022-10-05T04:28:46.517Z,4.80
2022-10-05T04:39:03.688Z,4.77
2022-10-05T04:49:29.636Z,4.80
2022-10-05T04:59:52.689Z,4.63
2022-10-05T05:10:19.322Z,5.20
2022-10-05T05:20:38.165Z,4.90
2022-10-05T05:30:47.228Z,4.50
2022-10-05T05:41:07.183Z,5.93
2022-10-05T05:51:16.502Z,4.87
2022-10-05T06:11:46.416Z,5.37
2022-10-05T06:22:30.658Z,5.10
2022-10-05T06:32:46.797Z,5.53
2022-10-05T06:43:22.622Z,5.67
2022-10-05T06:53:57.829Z,5.70
2022-10-05T07:04:31.267Z,6.50
2022-10-05T07:15:40.863Z,5.43
2022-10-05T07:26:19.696Z,6.40
2022-10-05T07:37:10.712Z,6.33
2022-10-05T07:47:48.888Z,5.47
2022-10-05T07:58:06.595Z,5.60
2022-10-05T08:08:26.122Z,5.37
2022-10-05T08:19:14.529Z,4.57
2022-10-05T08:29:32.474Z,4.30
2022-10-05T08:39:40.672Z,5.53
2022-10-05T08:50:16.771Z,3.47
2022-10-05T09:00:23.595Z,3.40
2022-10-05T09:11:05.766Z,3.37
2022-10-05T09:21:24.921Z,2.83
2022-10-05T09:31:51.915Z,2.07
2022-10-05T09:42:31.160Z,2.13
2022-10-05T09:53:28.382Z,0.93
2022-10-05T10:03:58.541Z,1.17
2022-10-05T10:14:20.689Z,0.80
2022-10-05T10:24:42.923Z,0.90
2022-10-05T10:35:23.000Z,1.17
2022-10-05T10:45:51.854Z,0.90
2022-10-05T10:56:15.839Z,1.00
2022-10-05T11:07:03.290Z,0.87
2022-10-05T11:17:41.951Z,0.90
2022-10-05T11:28:00.997Z,0.87
2022-10-05T11:38:32.640Z,0.90
2022-10-05T11:48:48.207Z,0.80
2022-10-05T11:58:57.853Z,0.70
2022-10-05T12:09:13.761Z,0.90
2022-10-05T12:19:27.240Z,0.80
2022-10-05T12:29:39.773Z,0.70
2022-10-05T12:39:51.553Z,0.80
2022-10-05T12:50:04.497Z,0.70
2022-10-05T13:00:14.663Z,0.60
2022-10-05T13:10:31.625Z,0.70
2022-10-05T13:20:44.677Z,0.90
2022-10-05T13:30:56.835Z,0.80
2022-10-05T13:41:11.804Z,0.80
2022-10-05T13:51:20.357Z,0.73
2022-10-05T14:01:41.568Z,0.70
2022-10-05T14:11:52.075Z,0.70
2022-10-05T14:22:02.239Z,0.70
2022-10-05T14:32:15.079Z,0.70
2022-10-05T14:42:23.021Z,0.90
2022-10-05T14:52:32.638Z,0.90
2022-10-05T15:02:55.647Z,1.10
2022-10-05T15:13:11.232Z,1.00
2022-10-05T15:23:24.840Z,1.03
2022-10-05T15:33:35.700Z,1.03
2022-10-05T15:43:51.286Z,1.00
2022-10-05T15:54:14.759Z,1.10
2022-10-05T16:04:30.127Z,0.97
2022-10-05T16:14:48.730Z,1.00
2022-10-05T16:25:06.704Z,1.00
2022-10-05T16:35:18.790Z,1.50
2022-10-05T16:45:30.659Z,1.10
2022-10-05T16:55:38.685Z,1.40
2022-10-05T17:06:13.288Z,1.00
2022-10-05T17:16:26.170Z,1.10
2022-10-05T17:26:54.887Z,1.80
2022-10-05T17:37:00.075Z,1.67
2022-10-05T17:47:09.090Z,1.07
2022-10-05T17:57:24.661Z,1.30
2022-10-05T18:07:29.675Z,1.23
2022-10-05T18:17:40.260Z,1.23
2022-10-05T18:28:02.713Z,1.27
2022-10-05T18:38:16.702Z,1.40
2022-10-05T18:48:33.497Z,1.00
2022-10-05T18:58:52.016Z,1.13
2022-10-05T19:09:08.023Z,1.13
2022-10-05T19:19:30.911Z,1.10
2022-10-05T19:30:11.911Z,1.00
2022-10-05T19:40:24.320Z,1.07
2022-10-05T19:50:30.331Z,0.73
2022-10-05T20:00:35.467Z,1.70
2022-10-05T20:10:39.823Z,1.03
2022-10-05T20:20:47.141Z,1.00
2022-10-05T20:30:55.351Z,0.97
2022-10-05T20:40:58.222Z,0.90
2022-10-05T20:51:02.555Z,0.80
2022-10-05T21:01:18.371Z,0.77
2022-10-05T21:11:22.981Z,0.70
2022-10-05T21:21:27.875Z,0.70
2022-10-05T21:31:33.359Z,0.80
2022-10-05T21:41:36.316Z,0.80
2022-10-05T21:51:41.326Z,0.70
2022-10-05T22:01:44.327Z,0.90
2022-10-05T22:11:49.751Z,1.00
2022-10-05T22:21:52.778Z,0.90
2022-10-05T22:31:57.584Z,1.10
2022-10-05T22:42:00.491Z,0.90
2022-10-05T22:52:04.701Z,0.60
2022-10-05T23:02:07.664Z,0.67
2022-10-05T23:12:13.675Z,0.20
2022-10-05T23:22:16.683Z,0.40
2022-10-05T23:32:20.890Z,0.30
2022-10-05T23:42:23.890Z,0.37
2022-10-05T23:52:28.348Z,0.30
